createdAt,value
2019-05-23T00:02:27.611Z,9.80
2019-05-23T00:05:12.886Z,9.80
2019-05-23T00:07:43.358Z,9.80
2019-05-23T00:10:15.307Z,9.80
2019-05-23T00:12:48.487Z,9.80
2019-05-23T00:15:35.411Z,9.70
2019-05-23T00:18:06.247Z,9.70
2019-05-23T00:20:35.706Z,9.60
2019-05-23T00:23:05.530Z,9.60
2019-05-23T00:25:35.603Z,9.60
2019-05-23T00:28:06.028Z,9.50
2019-05-23T00:30:42.595Z,9.60
2019-05-23T00:33:12.826Z,9.60
2019-05-23T00:35:43.249Z,9.50
2019-05-23T00:38:13.446Z,9.50
2019-05-23T00:40:43.578Z,9.50
2019-05-23T00:43:12.883Z,9.40
2019-05-23T00:45:41.810Z,9.40
2019-05-23T00:48:12.510Z,9.40
2019-05-23T00:50:41.115Z,9.30
2019-05-23T00:53:10.890Z,9.30
2019-05-23T00:55:39.855Z,9.30
2019-05-23T00:58:09.835Z,9.30
2019-05-23T01:00:39.501Z,9.30
2019-05-23T01:03:09.635Z,9.30
2019-05-23T01:05:39.707Z,9.20
2019-05-23T01:08:08.990Z,9.20
2019-05-23T01:10:38.340Z,9.10
2019-05-23T01:13:08.589Z,9.10
2019-05-23T01:15:38.025Z,9.00
2019-05-23T01:18:06.702Z,9.00
2019-05-23T01:20:39.798Z,8.90
2019-05-23T01:23:09.562Z,8.90
2019-05-23T01:25:38.170Z,8.90
2019-05-23T01:28:07.978Z,8.90
2019-05-23T01:30:38.228Z,9.00
2019-05-23T01:33:07.136Z,9.00
2019-05-23T01:35:35.984Z,9.00
2019-05-23T01:38:05.335Z,9.10
2019-05-23T01:40:33.928Z,9.00
2019-05-23T01:43:04.431Z,9.00
2019-05-23T01:45:34.447Z,8.90
2019-05-23T01:48:03.917Z,8.90
2019-05-23T01:50:33.526Z,8.90
2019-05-23T01:53:02.759Z,8.90
2019-05-23T01:55:31.697Z,8.90
2019-05-23T01:58:00.434Z,8.90
2019-05-23T02:00:31.369Z,8.90
2019-05-23T02:03:01.068Z,8.90
2019-05-23T02:05:31.073Z,8.80
2019-05-23T02:08:00.734Z,8.80
2019-05-23T02:10:30.209Z,8.70
2019-05-23T02:12:59.311Z,8.70
2019-05-23T02:15:30.134Z,8.60
2019-05-23T02:17:59.399Z,8.70
2019-05-23T02:20:29.082Z,8.70
2019-05-23T02:22:58.534Z,8.70
2019-05-23T02:25:29.560Z,8.70
2019-05-23T02:27:58.705Z,8.70
2019-05-23T02:30:34.664Z,8.70
2019-05-23T02:32:58.963Z,8.50
2019-05-23T02:35:28.739Z,8.50
2019-05-23T02:38:12.340Z,8.40
2019-05-23T02:40:47.950Z,8.30
2019-05-23T02:43:22.912Z,8.30
2019-05-23T02:46:07.720Z,8.30
2019-05-23T02:48:39.258Z,8.20
2019-05-23T02:51:11.305Z,8.30
2019-05-23T02:53:40.691Z,8.30
2019-05-23T02:56:13.402Z,8.30
2019-05-23T02:58:52.219Z,8.30
2019-05-23T03:01:31.198Z,8.30
2019-05-23T03:04:04.226Z,8.30
2019-05-23T03:06:34.946Z,8.30
2019-05-23T03:09:12.530Z,8.20
2019-05-23T03:11:43.182Z,8.20
2019-05-23T03:14:13.472Z,8.50
2019-05-23T03:16:44.268Z,8.50
2019-05-23T03:19:24.219Z,8.40
2019-05-23T03:21:57.899Z,8.30
2019-05-23T03:24:28.454Z,8.10
2019-05-23T03:27:03.111Z,8.10
2019-05-23T03:29:33.457Z,8.00
2019-05-23T03:32:13.115Z,8.00
2019-05-23T03:34:43.439Z,7.90
2019-05-23T03:37:12.027Z,8.00
2019-05-23T03:39:40.703Z,8.00
2019-05-23T03:42:10.745Z,8.10
2019-05-23T03:44:40.439Z,8.20
2019-05-23T03:47:10.627Z,8.30
2019-05-23T03:49:39.882Z,8.30
2019-05-23T03:52:10.443Z,8.30
2019-05-23T03:54:40.123Z,8.30
2019-05-23T03:57:09.019Z,8.40
2019-05-23T03:59:38.873Z,8.40
2019-05-23T04:02:09.114Z,8.30
2019-05-23T04:04:39.678Z,8.40
2019-05-23T04:07:08.415Z,8.50
2019-05-23T04:09:37.844Z,8.60
2019-05-23T04:12:06.819Z,8.70
2019-05-23T04:14:35.428Z,8.90
2019-05-23T04:17:05.868Z,8.80
2019-05-23T04:19:34.749Z,8.90
2019-05-23T04:22:03.747Z,8.90
2019-05-23T04:24:32.373Z,8.80
2019-05-23T04:27:01.464Z,8.70
2019-05-23T04:29:30.310Z,8.70
2019-05-23T04:32:07.984Z,8.60
2019-05-23T04:34:29.839Z,8.60
2019-05-23T04:36:58.873Z,8.60
2019-05-23T04:39:28.795Z,8.70
2019-05-23T04:41:57.818Z,8.90
2019-05-23T04:44:27.315Z,8.90
2019-05-23T04:46:57.130Z,8.90
2019-05-23T04:49:26.336Z,8.90
2019-05-23T04:51:55.569Z,9.00
2019-05-23T04:54:24.990Z,9.10
2019-05-23T04:56:55.134Z,9.20
2019-05-23T04:59:26.091Z,9.20
2019-05-23T05:01:56.286Z,9.30
2019-05-23T05:04:26.023Z,9.30
2019-05-23T05:06:55.981Z,9.40
2019-05-23T05:09:26.738Z,9.40
2019-05-23T05:11:56.649Z,9.30
2019-05-23T05:14:28.497Z,9.40
2019-05-23T05:16:57.956Z,9.40
2019-05-23T05:19:29.688Z,9.50
2019-05-23T05:21:58.597Z,9.70
2019-05-23T05:24:27.960Z,9.90
2019-05-23T05:26:57.631Z,10.10
2019-05-23T05:29:28.419Z,10.20
2019-05-23T05:31:57.887Z,10.40
2019-05-23T05:34:27.382Z,10.50
2019-05-23T05:36:57.993Z,10.90
2019-05-23T05:39:28.850Z,11.10
2019-05-23T05:41:58.874Z,11.00
2019-05-23T05:44:29.968Z,11.10
2019-05-23T05:47:00.170Z,11.30
2019-05-23T05:49:30.008Z,11.30
2019-05-23T05:51:59.341Z,11.30
2019-05-23T05:54:29.625Z,11.30
2019-05-23T05:56:59.373Z,11.30
2019-05-23T05:59:30.081Z,11.30
2019-05-23T06:02:00.334Z,11.40
2019-05-23T06:04:30.344Z,11.40
2019-05-23T06:07:22.045Z,11.40
2019-05-23T06:09:55.116Z,11.50
2019-05-23T06:12:29.663Z,11.60
2019-05-23T06:15:03.877Z,11.50
2019-05-23T06:17:34.058Z,11.50
2019-05-23T06:20:05.896Z,11.80
2019-05-23T06:22:37.954Z,11.80
2019-05-23T06:25:08.757Z,12.00
2019-05-23T06:27:38.330Z,12.10
2019-05-23T06:30:09.787Z,12.20
2019-05-23T06:32:38.403Z,12.10
2019-05-23T06:35:08.014Z,12.00
2019-05-23T06:37:37.078Z,12.00
2019-05-23T06:40:09.266Z,12.20
2019-05-23T06:42:38.667Z,12.10
2019-05-23T06:45:10.474Z,12.00
2019-05-23T06:47:39.701Z,12.00
2019-05-23T06:50:18.298Z,12.10
2019-05-23T06:52:50.313Z,12.30
2019-05-23T06:55:20.670Z,12.40
2019-05-23T06:57:50.678Z,12.60
2019-05-23T07:00:23.888Z,12.60
2019-05-23T07:02:55.592Z,12.40
2019-05-23T07:05:28.938Z,12.20
2019-05-23T07:07:57.854Z,12.50
2019-05-23T07:10:27.806Z,12.70
2019-05-23T07:12:57.696Z,12.80
2019-05-23T07:15:28.534Z,12.80
2019-05-23T07:17:58.526Z,12.90
2019-05-23T07:20:27.555Z,12.90
2019-05-23T07:22:58.384Z,13.10
2019-05-23T07:25:28.354Z,13.20
2019-05-23T07:27:58.250Z,13.10
2019-05-23T07:30:27.982Z,13.00
2019-05-23T07:32:57.527Z,12.90
2019-05-23T07:35:26.936Z,13.00
2019-05-23T07:37:56.533Z,13.10
2019-05-23T07:40:26.818Z,13.20
2019-05-23T07:42:58.644Z,13.10
2019-05-23T07:45:31.448Z,13.10
2019-05-23T07:48:00.133Z,13.20
2019-05-23T07:50:28.882Z,13.40
2019-05-23T07:52:59.103Z,13.60
2019-05-23T07:55:30.075Z,13.70
2019-05-23T07:57:59.102Z,13.70
2019-05-23T08:00:29.875Z,13.60
2019-05-23T08:03:00.032Z,13.60
2019-05-23T08:05:29.039Z,13.60
2019-05-23T08:07:58.374Z,13.80
2019-05-23T08:10:33.855Z,13.90
2019-05-23T08:13:00.482Z,13.80
2019-05-23T08:15:29.417Z,13.70
2019-05-23T08:17:58.470Z,13.60
2019-05-23T08:20:28.078Z,13.60
2019-05-23T08:22:56.961Z,13.70
2019-05-23T08:25:26.280Z,13.80
2019-05-23T08:27:55.238Z,14.10
2019-05-23T08:30:24.956Z,14.10
2019-05-23T08:32:54.350Z,13.90
2019-05-23T08:35:23.507Z,14.00
2019-05-23T08:37:53.508Z,14.10
2019-05-23T08:40:24.502Z,14.20
2019-05-23T08:42:54.418Z,14.20
2019-05-23T08:45:23.617Z,14.20
2019-05-23T08:47:53.839Z,14.20
2019-05-23T08:50:24.878Z,14.30
2019-05-23T08:52:56.331Z,14.40
2019-05-23T08:55:27.770Z,14.30
2019-05-23T08:57:57.356Z,14.30
2019-05-23T09:00:28.139Z,14.40
2019-05-23T09:02:59.085Z,14.50
2019-05-23T09:05:30.365Z,14.70
2019-05-23T09:08:00.108Z,14.90
2019-05-23T09:10:29.733Z,15.00
2019-05-23T09:12:59.680Z,14.90
2019-05-23T09:15:28.639Z,14.90
2019-05-23T09:17:57.784Z,15.10
2019-05-23T09:20:27.133Z,15.10
2019-05-23T09:22:56.847Z,14.80
2019-05-23T09:25:26.579Z,14.70
2019-05-23T09:27:57.150Z,14.80
2019-05-23T09:30:28.427Z,14.90
2019-05-23T09:32:57.417Z,14.90
2019-05-23T09:35:26.751Z,15.00
2019-05-23T09:37:55.708Z,15.00
2019-05-23T09:40:26.518Z,15.40
2019-05-23T09:42:55.619Z,15.20
2019-05-23T09:45:26.978Z,15.10
2019-05-23T09:47:56.202Z,15.10
2019-05-23T09:50:26.687Z,15.20
2019-05-23T09:52:55.670Z,15.20
2019-05-23T09:55:26.169Z,15.30
2019-05-23T09:57:57.274Z,15.30
2019-05-23T10:00:27.886Z,15.30
2019-05-23T10:02:59.231Z,15.20
2019-05-23T10:05:41.796Z,15.20
2019-05-23T10:08:00.422Z,15.20
2019-05-23T10:10:30.178Z,15.10
2019-05-23T10:12:58.977Z,15.20
2019-05-23T10:15:31.383Z,15.10
2019-05-23T10:18:01.183Z,15.40
2019-05-23T10:20:32.134Z,15.20
2019-05-23T10:23:00.727Z,15.30
2019-05-23T10:25:29.453Z,15.30
2019-05-23T10:28:01.173Z,15.40
2019-05-23T10:30:31.047Z,15.40
2019-05-23T10:32:59.907Z,15.40
2019-05-23T10:35:28.968Z,15.40
2019-05-23T10:37:58.287Z,15.50
2019-05-23T10:40:28.867Z,15.50
2019-05-23T10:42:58.111Z,15.60
2019-05-23T10:45:27.690Z,15.60
2019-05-23T10:47:57.470Z,15.60
2019-05-23T10:50:42.015Z,15.60
2019-05-23T10:52:58.338Z,15.70
2019-05-23T10:55:28.286Z,15.70
2019-05-23T10:57:57.993Z,16.10
2019-05-23T11:00:28.155Z,15.90
2019-05-23T11:02:57.982Z,15.70
2019-05-23T11:05:28.391Z,15.70
2019-05-23T11:07:58.154Z,15.70
2019-05-23T11:10:27.615Z,15.70
2019-05-23T11:12:57.153Z,15.70
2019-05-23T11:15:27.654Z,15.70
2019-05-23T11:17:57.608Z,16.20
2019-05-23T11:20:28.443Z,16.10
2019-05-23T11:22:58.626Z,16.10
2019-05-23T11:25:31.167Z,16.30
2019-05-23T11:27:59.906Z,16.30
2019-05-23T11:30:30.902Z,16.40
2019-05-23T11:32:59.895Z,16.40
2019-05-23T11:35:29.410Z,16.30
2019-05-23T11:37:58.194Z,16.20
2019-05-23T11:40:28.191Z,16.30
2019-05-23T11:42:57.709Z,16.50
2019-05-23T11:45:29.131Z,16.60
2019-05-23T11:47:58.845Z,16.80
2019-05-23T11:50:28.002Z,16.60
2019-05-23T11:52:57.760Z,16.70
2019-05-23T11:55:27.855Z,16.60
2019-05-23T11:57:59.065Z,16.70
2019-05-23T12:00:50.953Z,16.60
2019-05-23T12:03:23.099Z,16.80
2019-05-23T12:05:53.714Z,17.00
2019-05-23T12:08:23.341Z,16.80
2019-05-23T12:10:55.505Z,16.70
2019-05-23T12:13:24.941Z,16.80
2019-05-23T12:15:55.389Z,17.00
2019-05-23T12:18:28.786Z,17.20
2019-05-23T12:20:59.973Z,17.30
2019-05-23T12:23:29.162Z,17.30
2019-05-23T12:25:58.108Z,17.20
2019-05-23T12:28:29.932Z,17.30
2019-05-23T12:30:59.083Z,17.10
2019-05-23T12:33:28.735Z,17.40
2019-05-23T12:35:59.110Z,17.30
2019-05-23T12:38:28.478Z,17.30
2019-05-23T12:40:58.896Z,17.40
2019-05-23T12:43:28.463Z,17.50
2019-05-23T12:45:57.583Z,17.50
2019-05-23T12:48:28.434Z,17.50
2019-05-23T12:51:04.885Z,17.50
2019-05-23T12:53:33.626Z,17.70
2019-05-23T12:56:02.268Z,17.60
2019-05-23T12:58:32.520Z,17.60
2019-05-23T13:01:02.872Z,17.70
2019-05-23T13:03:31.534Z,17.80
2019-05-23T13:06:00.538Z,17.80
2019-05-23T13:08:30.602Z,17.90
2019-05-23T13:10:59.984Z,17.70
2019-05-23T13:13:29.084Z,17.70
2019-05-23T13:15:58.978Z,17.60
2019-05-23T13:18:28.310Z,17.50
2019-05-23T13:20:59.869Z,17.50
2019-05-23T13:23:30.215Z,17.40
2019-05-23T13:25:59.898Z,17.30
2019-05-23T13:28:29.507Z,17.30
2019-05-23T13:30:59.206Z,17.50
2019-05-23T13:33:28.987Z,17.70
2019-05-23T13:35:59.394Z,17.80
2019-05-23T13:38:29.621Z,17.80
2019-05-23T13:40:59.318Z,17.80
2019-05-23T13:43:29.284Z,17.90
2019-05-23T13:45:59.188Z,17.90
2019-05-23T13:48:29.226Z,17.80
2019-05-23T13:50:59.070Z,17.70
2019-05-23T13:53:29.622Z,18.00
2019-05-23T13:55:59.283Z,18.20
2019-05-23T13:58:29.340Z,18.00
2019-05-23T14:00:59.747Z,17.80
2019-05-23T14:03:28.920Z,17.50
2019-05-23T14:05:58.512Z,17.50
2019-05-23T14:08:28.746Z,17.40
2019-05-23T14:10:57.928Z,17.30
2019-05-23T14:13:28.123Z,17.40
2019-05-23T14:15:58.234Z,17.30
2019-05-23T14:18:28.769Z,17.30
2019-05-23T14:20:58.303Z,17.40
2019-05-23T14:23:31.832Z,17.60
2019-05-23T14:26:01.379Z,17.90
2019-05-23T14:28:30.653Z,17.80
2019-05-23T14:31:10.648Z,17.80
2019-05-23T14:33:44.021Z,18.00
2019-05-23T14:36:17.820Z,18.30
2019-05-23T14:38:50.401Z,18.80
2019-05-23T14:41:20.084Z,19.10
2019-05-23T14:43:52.190Z,18.80
2019-05-23T14:46:23.540Z,18.60
2019-05-23T14:49:00.618Z,18.70
2019-05-23T14:51:33.950Z,19.20
2019-05-23T14:54:17.710Z,19.50
2019-05-23T14:56:48.815Z,19.40
2019-05-23T14:59:23.531Z,19.60
2019-05-23T15:01:54.613Z,19.70
2019-05-23T15:04:23.687Z,19.70
2019-05-23T15:06:55.861Z,19.40
2019-05-23T15:09:28.388Z,19.40
2019-05-23T15:11:58.331Z,19.60
2019-05-23T15:14:29.289Z,19.80
2019-05-23T15:16:58.323Z,19.80
2019-05-23T15:19:41.782Z,20.30
2019-05-23T15:21:58.363Z,20.80
2019-05-23T15:24:28.375Z,21.20
2019-05-23T15:26:57.290Z,21.80
2019-05-23T15:29:29.380Z,21.80
2019-05-23T15:32:02.350Z,22.00
2019-05-23T15:34:29.057Z,22.30
2019-05-23T15:36:59.344Z,22.50
2019-05-23T15:39:28.759Z,21.90
2019-05-23T15:41:59.095Z,21.60
2019-05-23T15:44:30.437Z,21.30
2019-05-23T15:46:59.529Z,20.60
2019-05-23T15:49:29.549Z,20.70
2019-05-23T15:52:00.090Z,21.10
2019-05-23T15:54:40.261Z,21.60
2019-05-23T15:57:27.108Z,21.40
2019-05-23T16:00:04.267Z,21.90
2019-05-23T16:02:34.811Z,22.70
2019-05-23T16:05:05.832Z,23.20
2019-05-23T16:07:35.167Z,23.60
2019-05-23T16:10:07.656Z,23.50
2019-05-23T16:12:36.210Z,23.00
2019-05-23T16:15:17.544Z,22.50
2019-05-23T16:17:58.604Z,22.50
2019-05-23T16:20:30.729Z,22.50
2019-05-23T16:23:02.383Z,22.90
2019-05-23T16:25:41.935Z,22.50
2019-05-23T16:28:10.578Z,21.60
2019-05-23T16:30:41.710Z,20.30
2019-05-23T16:33:10.543Z,19.80
2019-05-23T16:35:39.179Z,19.70
2019-05-23T16:38:07.794Z,19.90
2019-05-23T16:40:36.394Z,20.10
2019-05-23T16:43:05.462Z,20.40
2019-05-23T16:45:34.089Z,20.90
2019-05-23T16:48:13.256Z,21.40
2019-05-23T16:50:43.129Z,21.70
2019-05-23T16:56:22.995Z,21.60
2019-05-23T16:59:02.940Z,21.70
2019-05-23T17:01:34.834Z,21.70
2019-05-23T17:04:05.615Z,22.00
2019-05-23T17:06:36.076Z,22.80
2019-05-23T17:09:24.698Z,23.20
2019-05-23T17:12:13.103Z,23.50
2019-05-23T17:14:47.382Z,23.90
2019-05-23T17:17:39.410Z,23.60
2019-05-23T17:19:58.371Z,23.00
2019-05-23T17:22:44.151Z,23.00
2019-05-23T17:25:21.159Z,22.90
2019-05-23T17:28:04.571Z,22.40
2019-05-23T17:30:44.038Z,22.40
2019-05-23T17:33:14.407Z,22.40
2019-05-23T17:35:42.964Z,22.30
2019-05-23T17:38:11.597Z,22.20
2019-05-23T17:40:41.260Z,22.00
2019-05-23T17:43:09.931Z,22.00
2019-05-23T17:45:38.930Z,22.10
2019-05-23T17:48:07.951Z,22.00
2019-05-23T17:50:36.578Z,21.80
2019-05-23T17:53:05.214Z,21.60
2019-05-23T17:55:34.225Z,21.40
2019-05-23T17:58:09.473Z,21.30
2019-05-23T18:00:39.737Z,21.30
2019-05-23T18:03:08.853Z,21.30
2019-05-23T18:05:37.691Z,21.20
2019-05-23T18:08:07.484Z,21.10
2019-05-23T18:10:44.647Z,20.90
2019-05-23T18:13:07.318Z,20.60
2019-05-23T18:15:36.507Z,20.20
2019-05-23T18:18:06.061Z,20.00
2019-05-23T18:20:35.814Z,19.70
2019-05-23T18:23:04.916Z,19.40
2019-05-23T18:25:33.791Z,19.10
2019-05-23T18:28:02.851Z,18.70
2019-05-23T18:30:34.690Z,18.50
2019-05-23T18:33:04.783Z,18.30
2019-05-23T18:35:33.378Z,17.80
2019-05-23T18:38:01.952Z,17.20
2019-05-23T18:40:30.571Z,16.60
2019-05-23T18:43:08.130Z,16.10
2019-05-23T18:45:36.927Z,15.70
2019-05-23T18:48:06.177Z,15.40
2019-05-23T18:50:35.023Z,15.00
2019-05-23T18:53:04.184Z,14.70
2019-05-23T18:55:32.944Z,14.50
2019-05-23T18:58:01.547Z,14.30
2019-05-23T19:00:56.370Z,14.20
2019-05-23T19:03:26.016Z,14.10
2019-05-23T19:05:56.245Z,13.90
2019-05-23T19:08:27.108Z,13.80
2019-05-23T19:10:56.373Z,13.80
2019-05-23T19:13:27.178Z,13.70
2019-05-23T19:15:56.355Z,13.70
2019-05-23T19:18:26.392Z,13.60
2019-05-23T19:20:56.523Z,13.50
2019-05-23T19:23:25.801Z,13.50
2019-05-23T19:25:56.337Z,13.40
2019-05-23T19:28:26.318Z,13.40
2019-05-23T19:30:55.843Z,13.30
2019-05-23T19:33:26.059Z,13.20
2019-05-23T19:35:56.608Z,13.10
2019-05-23T19:38:26.630Z,13.00
2019-05-23T19:40:55.441Z,12.90
2019-05-23T19:43:24.419Z,12.80
2019-05-23T19:45:53.303Z,12.80
2019-05-23T19:48:23.349Z,12.70
2019-05-23T19:50:53.135Z,12.70
2019-05-23T19:53:21.829Z,12.70
2019-05-23T19:55:50.661Z,12.70
2019-05-23T19:58:19.714Z,12.60
2019-05-23T20:00:48.711Z,12.60
2019-05-23T20:03:18.220Z,12.60
2019-05-23T20:05:48.852Z,12.50
2019-05-23T20:08:18.054Z,12.60
2019-05-23T20:10:46.964Z,12.60
2019-05-23T20:13:18.326Z,12.60
2019-05-23T20:15:47.854Z,12.60
2019-05-23T20:18:17.281Z,12.50
2019-05-23T20:20:46.272Z,12.50
2019-05-23T20:23:17.933Z,12.60
2019-05-23T20:25:47.572Z,12.50
2019-05-23T20:28:17.123Z,12.50
2019-05-23T20:30:50.896Z,12.50
2019-05-23T20:33:24.729Z,12.50
2019-05-23T20:35:56.515Z,12.60
2019-05-23T20:38:28.116Z,12.50
2019-05-23T20:40:56.987Z,12.50
2019-05-23T20:43:25.873Z,12.50
2019-05-23T20:45:54.798Z,12.40
2019-05-23T20:48:25.038Z,12.50
2019-05-23T20:50:54.044Z,12.40
2019-05-23T20:53:23.338Z,12.40
2019-05-23T20:55:52.137Z,12.30
2019-05-23T20:58:21.234Z,12.30
2019-05-23T21:00:51.898Z,12.30
2019-05-23T21:03:21.363Z,12.30
2019-05-23T21:05:50.293Z,12.20
2019-05-23T21:08:19.623Z,12.20
2019-05-23T21:10:49.210Z,12.20
2019-05-23T21:13:19.213Z,12.20
2019-05-23T21:15:54.998Z,12.20
2019-05-23T21:18:24.084Z,12.20
2019-05-23T21:20:52.703Z,12.10
2019-05-23T21:23:21.516Z,12.00
2019-05-23T21:25:54.682Z,12.00
2019-05-23T21:28:23.503Z,11.90
2019-05-23T21:30:52.640Z,12.00
2019-05-23T21:33:22.642Z,12.10
2019-05-23T21:35:52.540Z,12.10
2019-05-23T21:38:21.543Z,12.20
2019-05-23T21:40:50.676Z,12.20
2019-05-23T21:43:21.738Z,12.30
2019-05-23T21:45:53.713Z,12.20
2019-05-23T21:48:23.063Z,12.30
2019-05-23T21:50:52.406Z,12.30
2019-05-23T21:53:22.181Z,12.20
2019-05-23T21:55:53.021Z,12.00
2019-05-23T21:58:22.462Z,11.80
2019-05-23T22:00:58.410Z,11.60
2019-05-23T22:03:27.987Z,11.40
2019-05-23T22:05:57.199Z,11.20
2019-05-23T22:08:26.724Z,11.10
2019-05-23T22:10:56.206Z,11.20
2019-05-23T22:13:26.505Z,11.20
2019-05-23T22:15:57.117Z,11.30
2019-05-23T22:18:27.964Z,11.40
2019-05-23T22:20:57.306Z,11.50
2019-05-23T22:23:26.488Z,11.50
2019-05-23T22:25:56.822Z,11.70
2019-05-23T22:28:26.198Z,11.80
2019-05-23T22:30:55.593Z,11.90
2019-05-23T22:33:26.585Z,11.90
2019-05-23T22:35:55.827Z,11.90
2019-05-23T22:38:25.167Z,11.90
2019-05-23T22:40:54.695Z,12.00
2019-05-23T22:43:23.869Z,12.00
2019-05-23T22:45:53.751Z,11.90
2019-05-23T22:48:23.011Z,11.90
2019-05-23T22:50:51.996Z,11.70
2019-05-23T22:53:22.982Z,11.60
2019-05-23T22:55:52.364Z,11.40
2019-05-23T22:58:22.686Z,11.20
2019-05-23T23:00:52.187Z,11.20
2019-05-23T23:03:22.715Z,11.20
2019-05-23T23:05:52.343Z,11.10
2019-05-23T23:08:22.813Z,11.10
2019-05-23T23:10:54.598Z,11.20
2019-05-23T23:13:38.177Z,11.30
2019-05-23T23:15:55.844Z,11.40
2019-05-23T23:18:25.277Z,11.40
2019-05-23T23:20:54.861Z,11.30
2019-05-23T23:23:24.129Z,11.20
2019-05-23T23:25:53.662Z,11.00
2019-05-23T23:28:23.053Z,11.00
2019-05-23T23:30:52.369Z,11.10
2019-05-23T23:33:22.174Z,11.20
2019-05-23T23:35:51.291Z,11.40
2019-05-23T23:38:21.900Z,11.30
2019-05-23T23:40:51.383Z,11.40
2019-05-23T23:43:21.628Z,11.40
2019-05-23T23:46:08.654Z,11.50
2019-05-23T23:48:55.634Z,11.50
2019-05-23T23:51:42.194Z,11.50
2019-05-23T23:54:29.041Z,11.40
2019-05-23T23:57:16.771Z,11.20
2019-05-23T23:59:44.671Z,10.80
